Aviation Digital Data Service (ADDS)

Output produced by METARs form (1018 UTC 27 January 2015)
found at http://aviationweather.gov/adds/metars/
 
KCDW 271010Z 2SM -SN OVC028 M07/M10 A2969 RMK AO2 P0000 T10671100
KMMU 270955Z AUTO 36011G22KT 3SM -SN OVC026 M05/M09 A2970 RMK AO2
KFWN 270953Z AUTO 04005KT 2SM -SN BR OVC025 M06/M08 A2970 RMK AO2 SLP065 P0001 T10611083
KTEB 270954Z 36016G23KT 3SM -SN BLSN OVC039 M06/M10 A2967 RMK AO2 SNB53 P0000
KTEB 270836Z 2709/2806 36016G28KT 1SM -SN OVC008 
     TEMPO 2709/2711 1/4SM +SN FZFG BLSN VV005 
     FM271500 34017G30KT 1SM -SN BLSN OVC008 
     FM272100 33015G27KT 2SM -SN BLSN OVC020 
     FM280100 33012G22KT 2SM -SHSN OVC035 
     FM280400 32010G18KT P6SM SCT040 SCT100
       
KEWR 271015Z 35018G29KT 1SM -SN BLSN SCT015 OVC020 M07/M08 A2967 RMK AO2 PK WND 36029/1007 SFC VIS 1 1/4 P0001 $
KEWR 270836Z 2709/2812 36020G30KT 1SM -SN OVC008 
     TEMPO 2709/2711 1/2SM SN FZFG BLSN VV005 
     FM271500 34022G33KT 1SM -SN BLSN OVC008 
     FM272100 34018G30KT 2SM -SN BLSN OVC020 
     FM280100 33015G26KT 2SM -SHSN OVC035 
     FM280400 32013G21KT P6SM SCT040 SCT100
       
KABE 271014Z 32004KT 4SM -SN OVC032 M04/M07 A2972 RMK AO2 P0000
KABE 270556Z 2706/2806 02015KT 6SM -SN SCT025 OVC035 
     TEMPO 2707/2710 3SM -SN BKN025 
     FM271000 36012G18KT 2SM -SN OVC020 
     FM271300 34013G20KT 6SM -SN OVC035 
     FM271900 32015G23KT P6SM SCT035 BKN080 
     FM280300 31012KT P6SM SCT025
       
KAVP 271012Z AUTO 36005KT 2 1/2SM -SN OVC029 M07/M11 A2974 RMK AO2 P0000 T10671111
KAVP 271006Z 2710/2806 36007KT P6SM -SHSN SCT020 OVC050 
     TEMPO 2710/2712 3SM -SHSN BKN025 OVC040 
     FM271600 33010G18KT P6SM -SHSN SCT025 OVC040
       
KSWF 270945Z 03020G30KT 2SM -SN BKN003 OVC015 M09/M11 A2973
KSWF 270836Z 2709/2812 35018G30KT 1SM -SN VV003 
     FM271500 33017G30KT 1SM -SN VV008 
     FM272000 33014G23KT 2SM -SN OVC020 
     FM280100 33012G20KT 2SM -SHSN OVC030 
     FM280400 32011KT P6SM SCT040 SCT100 AMD NOT SKED
       
KMSV 271015Z AUTO 32007KT 10SM SCT034 OVC043 M08/M12 A2967 RMK AO1
KPOU 270953Z AUTO 36013G20KT 1 1/4SM -SN OVC017 M08/M12 A2974 RMK AO2 SLP072 P0000 T10831117 TSNO
KPOU 270855Z 2709/2806 36012G20KT 1SM -SN VV013 
     TEMPO 2709/2712 1/2SM SN FZFG OVC008 
     FM272100 34012G22KT 5SM -SN BR OVC025 
     FM280000 33010G20KT P6SM OVC045